createdAt,value
2018-08-23T00:04:11.290Z,22.70
2018-08-23T00:09:16.825Z,22.90
2018-08-23T00:14:20.013Z,22.80
2018-08-23T00:19:22.549Z,22.80
2018-08-23T00:24:28.529Z,22.90
2018-08-23T00:29:34.610Z,22.60
2018-08-23T00:34:37.971Z,22.30
2018-08-23T00:39:43.749Z,22.50
2018-08-23T00:44:57.508Z,22.40
2018-08-23T00:49:59.989Z,22.50
2018-08-23T00:55:14.278Z,22.60
2018-08-23T01:00:19.453Z,22.60
2018-08-23T01:05:28.239Z,22.60
2018-08-23T01:10:30.382Z,22.50
2018-08-23T01:15:35.455Z,22.50
2018-08-23T01:20:38.917Z,22.30
2018-08-23T01:25:42.534Z,22.20
2018-08-23T01:30:47.355Z,22.00
2018-08-23T01:35:50.751Z,22.00
2018-08-23T01:40:53.116Z,21.80
2018-08-23T01:45:55.243Z,22.00
2018-08-23T01:50:57.406Z,22.10
2018-08-23T01:55:59.593Z,22.00
2018-08-23T02:01:11.665Z,22.00
2018-08-23T02:06:15.272Z,22.10
2018-08-23T02:11:21.465Z,21.90
2018-08-23T02:16:23.629Z,21.80
2018-08-23T02:21:25.899Z,21.80
2018-08-23T02:26:28.397Z,21.80
2018-08-23T02:31:33.436Z,21.80
2018-08-23T02:36:36.572Z,21.70
2018-08-23T02:41:40.551Z,21.60
2018-08-23T02:46:42.699Z,21.40
2018-08-23T02:51:50.774Z,21.00
2018-08-23T02:56:56.070Z,21.60
2018-08-23T03:02:09.461Z,21.50
2018-08-23T03:07:11.615Z,21.60
2018-08-23T03:12:16.525Z,21.50
2018-08-23T03:17:25.065Z,21.40
2018-08-23T03:22:27.573Z,20.80
2018-08-23T03:27:30.478Z,21.10
2018-08-23T03:32:33.244Z,21.40
2018-08-23T03:37:35.453Z,21.40
2018-08-23T03:42:37.616Z,21.40
2018-08-23T03:47:46.033Z,21.50
2018-08-23T03:52:51.036Z,21.30
2018-08-23T03:57:59.890Z,21.30
2018-08-23T04:03:08.826Z,21.40
2018-08-23T04:08:12.443Z,21.30
2018-08-23T04:13:17.701Z,21.30
2018-08-23T04:18:21.766Z,21.20
2018-08-23T04:23:25.505Z,21.10
2018-08-23T04:28:29.282Z,21.10
2018-08-23T04:33:33.299Z,20.70
2018-08-23T04:38:44.305Z,20.40
2018-08-23T04:43:47.269Z,20.10
2018-08-23T04:48:50.322Z,19.90
2018-08-23T04:53:54.449Z,20.00
2018-08-23T04:58:56.921Z,20.10
2018-08-23T05:04:00.513Z,20.10
2018-08-23T05:09:05.245Z,20.10
2018-08-23T05:14:08.724Z,20.20
2018-08-23T05:19:13.141Z,20.20
2018-08-23T05:24:16.550Z,20.30
2018-08-23T05:29:19.456Z,20.60
2018-08-23T05:34:21.787Z,20.90
2018-08-23T05:39:33.689Z,20.80
2018-08-23T05:44:35.815Z,21.20
2018-08-23T05:49:37.941Z,20.90
2018-08-23T05:54:41.586Z,21.00
2018-08-23T05:59:44.173Z,21.00
2018-08-23T06:04:46.473Z,21.30
2018-08-23T06:09:48.610Z,21.70
2018-08-23T06:14:50.757Z,22.20
2018-08-23T06:19:53.529Z,22.60
2018-08-23T06:24:55.939Z,22.90
2018-08-23T06:29:58.102Z,23.30
2018-08-23T06:35:00.265Z,23.50
2018-08-23T06:40:02.412Z,24.00
2018-08-23T06:45:04.841Z,24.30
2018-08-23T06:50:07.860Z,24.40
2018-08-23T06:55:15.811Z,24.60
2018-08-23T07:00:24.381Z,25.10
2018-08-23T07:05:26.808Z,25.50
2018-08-23T07:10:29.102Z,25.40
2018-08-23T07:15:31.318Z,25.80
2018-08-23T07:20:33.486Z,26.00
2018-08-23T07:25:41.593Z,26.60
2018-08-23T07:30:43.919Z,26.80
2018-08-23T07:35:47.554Z,27.00
2018-08-23T07:40:49.690Z,26.90
2018-08-23T07:45:51.845Z,27.30
2018-08-23T07:50:54.144Z,26.00
2018-08-23T07:55:56.401Z,26.80
2018-08-23T08:00:58.618Z,26.00
2018-08-23T08:06:00.967Z,26.80
2018-08-23T08:11:03.120Z,26.80
2018-08-23T08:16:13.573Z,27.60
2018-08-23T08:21:16.821Z,27.50
2018-08-23T08:26:19.023Z,28.00
2018-08-23T08:31:21.289Z,27.00
2018-08-23T08:36:24.629Z,26.60
2018-08-23T08:41:31.326Z,26.80
2018-08-23T08:46:33.474Z,26.80
2018-08-23T08:51:35.614Z,26.80
2018-08-23T08:56:43.147Z,28.10
2018-08-23T09:01:45.273Z,27.90
2018-08-23T09:06:47.457Z,28.10
2018-08-23T09:11:49.661Z,29.50
2018-08-23T09:16:51.995Z,29.10
2018-08-23T09:22:01.903Z,29.70
2018-08-23T09:27:14.548Z,30.10
2018-08-23T09:32:22.489Z,30.60
2018-08-23T09:37:25.242Z,30.00
2018-08-23T09:42:32.581Z,30.80
2018-08-23T09:47:34.779Z,30.50
2018-08-23T09:52:42.888Z,29.90
2018-08-23T09:57:45.532Z,30.70
2018-08-23T10:02:53.462Z,30.70
2018-08-23T10:08:01.369Z,30.80
2018-08-23T10:13:09.594Z,30.10
2018-08-23T10:18:17.523Z,30.70
2018-08-23T10:23:21.858Z,30.40
2018-08-23T10:28:25.297Z,31.00
2018-08-23T10:33:27.474Z,30.10
2018-08-23T10:38:29.630Z,30.30
2018-08-23T10:43:37.661Z,30.40
2018-08-23T10:48:39.823Z,30.70
2018-08-23T10:53:42.114Z,30.40
2018-08-23T10:58:44.280Z,31.00
2018-08-23T11:03:46.514Z,31.20
2018-08-23T11:08:54.545Z,31.30
2018-08-23T11:13:56.795Z,32.00
2018-08-23T11:19:04.754Z,32.00
2018-08-23T11:24:06.925Z,31.90
2018-08-23T11:29:09.069Z,31.60
2018-08-23T11:34:11.201Z,32.00
2018-08-23T11:39:13.370Z,32.00
2018-08-23T11:44:15.647Z,31.60
2018-08-23T11:49:17.978Z,31.70
2018-08-23T11:54:20.218Z,31.60
2018-08-23T11:59:22.412Z,31.50
2018-08-23T12:04:24.622Z,31.90
2018-08-23T12:09:32.417Z,31.90
2018-08-23T12:14:34.599Z,31.90
2018-08-23T12:19:36.753Z,31.80
2018-08-23T12:24:38.965Z,31.70
2018-08-23T12:29:41.111Z,31.90
2018-08-23T12:34:43.332Z,32.00
2018-08-23T12:39:51.192Z,32.00
2018-08-23T12:44:53.388Z,31.90
2018-08-23T12:50:01.350Z,31.80
2018-08-23T12:55:03.634Z,31.70
2018-08-23T13:00:05.854Z,31.70
2018-08-23T13:05:08.171Z,31.90
2018-08-23T13:10:10.361Z,32.00
2018-08-23T13:15:12.521Z,31.50
2018-08-23T13:20:14.746Z,32.00
2018-08-23T13:25:16.896Z,32.20
2018-08-23T13:30:19.132Z,32.40
2018-08-23T13:35:21.404Z,32.20
2018-08-23T13:40:23.590Z,32.40
2018-08-23T13:45:25.795Z,31.90
2018-08-23T13:50:27.945Z,31.40
2018-08-23T13:55:30.133Z,31.60
2018-08-23T14:00:38.421Z,31.50
2018-08-23T14:05:41.237Z,31.90
2018-08-23T14:10:43.473Z,31.40
2018-08-23T14:15:51.374Z,31.20
2018-08-23T14:20:53.549Z,31.20
2018-08-23T14:25:55.799Z,31.20
2018-08-23T14:30:57.974Z,31.10
2018-08-23T14:36:00.506Z,31.20
2018-08-23T14:41:02.682Z,31.00
2018-08-23T14:46:10.602Z,31.00
2018-08-23T14:51:16.701Z,30.90
2018-08-23T14:56:24.637Z,30.90
2018-08-23T15:01:26.782Z,31.00
2018-08-23T15:06:28.946Z,31.10
2018-08-23T15:11:31.133Z,31.30
2018-08-23T15:16:33.350Z,31.10
2018-08-23T15:21:35.490Z,31.00
2018-08-23T15:26:37.783Z,31.20
2018-08-23T15:31:41.039Z,31.30
2018-08-23T15:36:43.375Z,31.50
2018-08-23T15:41:45.778Z,31.50
2018-08-23T15:46:48.598Z,31.60
2018-08-23T15:51:50.834Z,31.60
2018-08-23T15:56:53.104Z,31.50
2018-08-23T16:01:55.349Z,31.50
2018-08-23T16:06:57.510Z,31.50
2018-08-23T16:11:59.678Z,31.70
2018-08-23T16:17:07.533Z,31.50
2018-08-23T16:22:09.757Z,31.30
2018-08-23T16:27:11.910Z,31.10
2018-08-23T16:32:19.933Z,31.10
2018-08-23T16:37:22.129Z,31.10
2018-08-23T16:42:24.254Z,31.00
2018-08-23T16:47:26.474Z,30.90
2018-08-23T16:52:29.478Z,30.70
2018-08-23T16:57:31.662Z,30.70
2018-08-23T17:02:33.809Z,30.70
2018-08-23T17:07:35.966Z,30.60
2018-08-23T17:12:38.131Z,30.50
2018-08-23T17:17:43.506Z,30.30
2018-08-23T17:22:45.638Z,30.10
2018-08-23T17:27:47.777Z,30.10
2018-08-23T17:32:49.937Z,30.10
2018-08-23T17:37:52.117Z,29.70
2018-08-23T17:42:54.314Z,29.70
2018-08-23T17:47:56.490Z,29.50
2018-08-23T17:52:58.690Z,29.30
2018-08-23T17:58:00.903Z,29.10
2018-08-23T18:03:03.099Z,29.00
2018-08-23T18:08:05.242Z,29.00
2018-08-23T18:13:07.451Z,28.90
2018-08-23T18:18:09.702Z,29.10
2018-08-23T18:23:11.930Z,28.90
2018-08-23T18:28:14.102Z,28.90
2018-08-23T18:33:16.253Z,28.70
2018-08-23T18:38:18.401Z,28.70
2018-08-23T18:43:20.598Z,28.50
2018-08-23T18:48:22.773Z,27.20
2018-08-23T18:53:24.978Z,26.40
2018-08-23T18:58:27.222Z,26.10
2018-08-23T19:03:29.452Z,25.00
2018-08-23T19:08:31.621Z,24.50
2018-08-23T19:13:33.881Z,24.00
2018-08-23T19:18:36.252Z,23.60
2018-08-23T19:23:38.611Z,23.40
2018-08-23T19:28:41.034Z,23.50
2018-08-23T19:33:43.278Z,23.20
2018-08-23T19:38:45.712Z,23.00
2018-08-23T19:43:49.620Z,23.10
2018-08-23T19:48:57.891Z,23.30
2018-08-23T19:54:00.834Z,23.10
2018-08-23T19:59:03.125Z,23.20
2018-08-23T20:04:05.761Z,22.70
2018-08-23T20:09:08.790Z,22.30
2018-08-23T20:14:11.826Z,21.90
2018-08-23T20:19:14.141Z,22.30
2018-08-23T20:24:17.611Z,22.40
2018-08-23T20:29:21.300Z,22.40
2018-08-23T20:34:24.106Z,22.70
2018-08-23T20:39:26.698Z,22.70
2018-08-23T20:44:28.617Z,22.80
2018-08-23T20:49:31.621Z,23.10
2018-08-23T20:54:33.803Z,22.30
2018-08-23T20:59:35.949Z,21.60
2018-08-23T21:04:38.174Z,21.10
2018-08-23T21:09:40.425Z,21.60
2018-08-23T21:14:42.937Z,21.60
2018-08-23T21:19:46.141Z,21.70
2018-08-23T21:24:48.297Z,21.40
2018-08-23T21:29:50.432Z,21.20
2018-08-23T21:34:52.630Z,21.30
2018-08-23T21:39:54.766Z,21.40
2018-08-23T21:44:57.630Z,21.40
2018-08-23T21:50:00.726Z,21.50
2018-08-23T21:55:03.669Z,21.50
2018-08-23T22:00:06.706Z,21.60
2018-08-23T22:05:08.854Z,21.90
2018-08-23T22:10:10.993Z,21.40
2018-08-23T22:15:13.171Z,20.90
2018-08-23T22:20:16.447Z,21.00
2018-08-23T22:25:18.913Z,21.30
2018-08-23T22:30:21.374Z,21.00
2018-08-23T22:35:24.062Z,21.20
2018-08-23T22:40:26.554Z,21.20
2018-08-23T22:45:28.877Z,20.90
2018-08-23T22:50:31.102Z,21.20
2018-08-23T22:55:33.289Z,21.20
2018-08-23T23:00:40.594Z,21.20
2018-08-23T23:05:45.285Z,21.00
2018-08-23T23:10:47.693Z,21.10
2018-08-23T23:15:49.839Z,20.80
2018-08-23T23:20:52.623Z,20.70
2018-08-23T23:25:56.350Z,20.80
2018-08-23T23:30:59.618Z,20.80
2018-08-23T23:36:02.902Z,20.70
2018-08-23T23:41:05.281Z,20.40
2018-08-23T23:46:07.425Z,20.20
2018-08-23T23:51:09.558Z,20.00
2018-08-23T23:56:11.728Z,20.10
